Time;durP1;ratioP1;P1;durP2;ratioP2;P2;SDS_P1;SDS_P2;PMS_P1;PMS_P2;Temp;Humidity;BMP_temperature;BMP_pressure;BME280_temperature;BME280_humidity;BME280_pressure;Samples;Min_cycle;Max_cycle;Signal;HPM_P1;HPM_P2
2023/08/03 00:00:33;;;;;;;18.23;15.80;;;;;;;-141.97;56.30;47323.03;5033709;28;20264;-85
2023/08/03 00:02:59;;;;;;;18.10;15.32;;;;;;;-141.97;56.52;47180.81;5034166;28;20265;-85
2023/08/03 00:05:25;;;;;;;21.10;16.17;;;;;;;-141.97;56.07;47503.69;5050580;28;20283;-85
2023/08/03 00:07:51;;;;;;;19.50;15.27;;;;;;;-141.97;56.01;47373.00;5033425;28;20255;-85
2023/08/03 00:10:18;;;;;;;17.15;15.32;;;;;;;-141.97;56.04;47592.13;5032462;28;20223;-85
2023/08/03 00:12:45;;;;;;;24.52;15.70;;;;;;;-141.97;56.26;47215.41;5033126;28;20244;-85
2023/08/03 00:15:12;;;;;;;17.90;15.48;;;;;;;-141.97;56.59;47261.53;5053003;28;20176;-85
2023/08/03 00:17:38;;;;;;;19.17;14.98;;;;;;;-141.97;56.71;47323.03;5080745;28;20164;-85
2023/08/03 00:20:05;;;;;;;19.10;15.05;;;;;;;-141.97;56.59;47169.28;5080549;28;20194;-85
2023/08/03 00:22:31;;;;;;;18.50;15.20;;;;;;;-141.97;56.61;47257.69;5065839;28;20224;-86
2023/08/03 00:24:58;;;;;;;19.70;15.10;;;;;;;-141.97;56.96;47546.00;5072234;28;20171;-85
2023/08/03 00:27:24;;;;;;;17.50;14.75;;;;;;;-141.97;56.85;47553.69;5070970;28;20270;-85
2023/08/03 00:29:49;;;;;;;17.15;14.63;;;;;;;-141.97;57.95;47346.09;5070236;28;20298;-85
2023/08/03 00:32:14;;;;;;;19.92;14.43;;;;;;;-141.97;58.36;47188.50;5052127;28;20314;-86
2023/08/03 00:34:40;;;;;;;16.80;14.98;;;;;;;-141.97;58.35;47590.19;5052121;28;20165;-85
2023/08/03 00:37:05;;;;;;;17.50;14.75;;;;;;;-141.97;57.93;47638.25;5052171;28;20650;-85
2023/08/03 00:39:31;;;;;;;16.77;14.32;;;;;;;-141.97;58.19;47152.00;5053273;28;20205;-85
2023/08/03 00:41:56;;;;;;;20.77;14.23;;;;;;;-141.97;58.44;47286.53;5053403;28;20195;-85
2023/08/03 00:44:22;;;;;;;19.98;14.95;;;;;;;-141.97;58.21;47290.38;5069898;28;20160;-85
2023/08/03 00:46:47;;;;;;;17.73;15.07;;;;;;;-141.97;57.32;47290.38;5041020;28;20232;-85
2023/08/03 00:49:13;;;;;;;19.40;14.52;;;;;;;-141.97;57.45;47236.56;5065542;28;20179;-86
2023/08/03 00:51:38;;;;;;;15.45;13.82;;;;;;;-141.97;56.75;47071.28;5032358;28;20197;-85
2023/08/03 00:54:07;;;;;;;18.83;13.90;;;;;;;-141.97;57.73;47242.31;5032235;28;20239;-85
2023/08/03 00:56:34;;;;;;;18.15;14.50;;;;;;;-141.97;58.06;47271.16;5055597;28;20254;-86
2023/08/03 00:59:00;;;;;;;18.42;14.05;;;;;;;-141.97;58.16;47255.78;5052722;28;20575;-85
2023/08/03 01:01:26;;;;;;;15.75;13.98;;;;;;;-141.97;58.24;47313.44;5052577;28;20510;-86
2023/08/03 01:03:52;;;;;;;17.23;14.55;;;;;;;-141.97;58.15;47188.50;5060351;28;20190;-86
2023/08/03 01:06:17;;;;;;;16.42;14.02;;;;;;;-141.97;58.70;47392.22;5053108;28;20171;-86
2023/08/03 01:08:43;;;;;;;17.60;14.88;;;;;;;-141.97;58.54;47574.81;5052349;28;20214;-86
2023/08/03 01:11:08;;;;;;;17.10;14.63;;;;;;;-141.97;59.16;47403.75;5052471;28;20229;-85
2023/08/03 01:13:34;;;;;;;17.45;14.70;;;;;;;-141.97;59.14;47157.75;5051919;28;20614;-85
2023/08/03 01:16:00;;;;;;;18.85;14.68;;;;;;;-141.97;59.97;47194.28;5049287;28;20593;-86
2023/08/03 01:18:25;;;;;;;16.97;14.63;;;;;;;-141.97;59.69;47446.03;5032032;28;20158;-86
2023/08/03 01:20:51;;;;;;;20.70;15.07;;;;;;;-141.97;61.13;47392.22;5015928;28;20266;-86
2023/08/03 01:23:17;;;;;;;17.17;14.97;;;;;;;-141.97;61.04;47580.59;5017359;28;20181;-84
2023/08/03 01:25:42;;;;;;;20.33;14.70;;;;;;;-141.97;60.47;47296.13;5036505;28;20186;-84
2023/08/03 01:28:08;;;;;;;17.40;13.90;;;;;;;-141.97;60.11;47376.84;5033626;28;20634;-86
2023/08/03 01:30:33;;;;;;;15.97;14.03;;;;;;;-141.97;60.53;47269.22;5033251;28;20507;-85
2023/08/03 01:32:59;;;;;;;18.57;14.10;;;;;;;-141.97;60.65;47551.75;5034787;28;20184;-86
2023/08/03 01:35:25;;;;;;;16.90;13.87;;;;;;;-141.97;59.66;47253.84;5067946;28;20264;-85
2023/08/03 01:37:51;;;;;;;16.03;13.80;;;;;;;-141.97;59.00;47401.84;5052293;28;20300;-85
2023/08/03 01:40:17;;;;;;;17.00;14.00;;;;;;;-141.97;58.80;47374.94;5058683;28;20184;-85
2023/08/03 01:42:43;;;;;;;17.73;13.80;;;;;;;-141.97;58.91;47225.03;5054491;28;20164;-85
2023/08/03 01:45:09;;;;;;;16.83;14.30;;;;;;;-141.97;58.76;47388.38;5087659;28;20172;-85
2023/08/03 01:47:35;;;;;;;15.83;14.13;;;;;;;-141.97;59.40;47346.09;5077713;28;20170;-85
2023/08/03 01:50:01;;;;;;;16.30;14.03;;;;;;;-141.97;61.37;47371.09;5046753;28;20247;-85
2023/08/03 01:52:26;;;;;;;15.67;13.90;;;;;;;-141.97;61.28;47342.25;5054578;28;20173;-85
2023/08/03 01:54:51;;;;;;;20.57;14.40;;;;;;;-141.97;61.47;47398.00;5054576;28;20270;-85
2023/08/03 01:57:20;;;;;;;18.13;14.27;;;;;;;-141.97;61.87;47384.53;5084051;28;20561;-85
2023/08/03 01:59:45;;;;;;;17.87;15.00;;;;;;;-141.97;61.33;47438.34;5056668;28;20176;-85
2023/08/03 02:02:12;;;;;;;20.17;14.93;;;;;;;-141.97;62.12;47326.88;5034646;28;20173;-85
2023/08/03 02:04:38;;;;;;;16.40;14.70;;;;;;;-141.97;62.07;47324.97;5059678;28;20200;-85
2023/08/03 02:07:15;;;;;;;16.50;14.33;;;;;;;-141.97;62.27;47421.06;5075511;28;20150;-85
2023/08/03 02:09:40;;;;;;;19.33;14.83;;;;;;;-141.97;62.06;47453.72;5064435;28;20239;-85
2023/08/03 02:12:06;;;;;;;18.53;14.97;;;;;;;-141.97;61.88;47413.38;5072224;28;20203;-84
2023/08/03 02:14:31;;;;;;;18.50;15.37;;;;;;;-141.97;61.59;47422.97;5054309;28;20176;-86
2023/08/03 02:16:57;;;;;;;18.60;14.73;;;;;;;-141.97;61.61;47424.91;5041969;28;20169;-85
2023/08/03 02:19:22;;;;;;;20.17;15.27;;;;;;;-141.97;61.92;47336.50;5072545;28;20187;-85
2023/08/03 02:21:47;;;;;;;19.03;15.60;;;;;;;-141.97;61.80;47321.13;5087307;28;20180;-85
2023/08/03 02:24:13;;;;;;;20.33;15.23;;;;;;;-141.97;62.81;47615.19;5071828;28;20473;-84
2023/08/03 02:26:38;;;;;;;20.77;15.87;;;;;;;-141.97;63.55;47449.88;5054248;28;20234;-84
2023/08/03 02:29:03;;;;;;;18.13;15.13;;;;;;;-141.97;64.16;47294.22;5054240;28;20263;-85
2023/08/03 02:31:29;;;;;;;19.57;15.77;;;;;;;-141.97;63.61;47230.78;5054490;28;20626;-85
2023/08/03 02:33:54;;;;;;;21.00;15.73;;;;;;;-141.97;63.24;47349.94;5033998;28;20263;-85
2023/08/03 02:36:20;;;;;;;21.03;15.80;;;;;;;-141.97;62.73;47311.50;5051820;28;20563;-85
2023/08/03 02:38:45;;;;;;;18.10;15.37;;;;;;;-141.97;62.52;47265.38;5034246;28;20221;-85
2023/08/03 02:41:10;;;;;;;22.53;16.03;;;;;;;-141.97;62.79;47146.22;5052759;28;20211;-85
2023/08/03 02:43:36;;;;;;;19.43;14.93;;;;;;;-141.97;63.13;47184.66;5053409;28;20175;-86
2023/08/03 02:46:01;;;;;;;20.20;16.13;;;;;;;-141.97;63.61;47605.56;5067950;28;20248;-86
2023/08/03 02:48:27;;;;;;;23.73;16.57;;;;;;;-141.97;64.17;47653.63;5051419;28;20161;-86
2023/08/03 02:50:52;;;;;;;19.83;15.60;;;;;;;-141.97;64.21;47449.88;5082664;28;20189;-85
2023/08/03 02:53:17;;;;;;;21.43;15.93;;;;;;;-141.97;64.33;47234.63;5071161;28;20173;-85
2023/08/03 02:55:43;;;;;;;20.17;15.93;;;;;;;-141.97;64.05;47223.09;5086908;28;20161;-86
2023/08/03 02:58:08;;;;;;;19.77;16.23;;;;;;;-141.97;64.66;47376.84;5048434;28;20465;-85
2023/08/03 03:00:33;;;;;;;22.27;17.37;;;;;;;-141.97;64.78;47642.09;5068789;28;20176;-86
2023/08/03 03:02:59;;;;;;;22.07;16.57;;;;;;;-141.97;64.18;47307.66;5070978;28;20229;-85
2023/08/03 03:05:24;;;;;;;22.57;16.47;;;;;;;-141.97;64.08;47572.91;5054769;28;20647;-85
2023/08/03 03:07:50;;;;;;;25.40;18.27;;;;;;;-141.97;63.85;47653.63;5033272;28;20243;-85
2023/08/03 03:10:15;;;;;;;22.73;16.63;;;;;;;-141.97;62.91;47424.91;5062794;28;20218;-85
2023/08/03 03:12:41;;;;;;;19.17;15.30;;;;;;;-141.97;62.78;47280.75;5086514;28;20199;-85
2023/08/03 03:15:07;;;;;;;20.03;15.63;;;;;;;-141.97;62.69;47373.00;5086797;28;20172;-85
2023/08/03 03:17:32;;;;;;;19.40;15.67;;;;;;;-141.97;62.34;47684.38;5036876;28;20188;-85
2023/08/03 03:19:58;;;;;;;21.43;15.80;;;;;;;-141.97;62.20;47599.81;5059415;28;20169;-86
2023/08/03 03:22:23;;;;;;;26.93;16.07;;;;;;;-141.97;62.00;47323.03;5070841;28;20195;-85
2023/08/03 03:24:49;;;;;;;27.67;15.70;;;;;;;-141.97;61.97;47319.19;5052507;28;20187;-86
2023/08/03 03:27:14;;;;;;;26.30;16.40;;;;;;;-141.97;61.65;47292.28;5086866;28;20196;-86
2023/08/03 03:29:39;;;;;;;26.03;15.17;;;;;;;-141.97;61.30;47292.28;5070748;28;20171;-85
2023/08/03 03:32:05;;;;;;;21.40;15.40;;;;;;;-141.97;61.06;47584.44;5052615;28;20180;-86
2023/08/03 03:34:30;;;;;;;20.47;15.07;;;;;;;-141.97;61.47;47388.38;5071065;28;20168;-85
2023/08/03 03:36:56;;;;;;;21.30;15.47;;;;;;;-141.97;61.71;47449.88;5070484;28;20590;-86
2023/08/03 03:39:21;;;;;;;22.07;15.27;;;;;;;-141.97;62.17;47326.88;5031279;28;20178;-85
2023/08/03 03:41:46;;;;;;;18.87;14.70;;;;;;;-141.97;61.73;47184.66;5032940;28;20170;-85
2023/08/03 03:44:12;;;;;;;20.27;15.03;;;;;;;-141.97;62.69;47557.53;5013498;28;20170;-85
2023/08/03 03:46:37;;;;;;;18.77;14.63;;;;;;;-141.97;62.95;47413.38;5017374;28;20170;-85
2023/08/03 03:49:02;;;;;;;20.60;14.97;;;;;;;-141.97;63.13;47357.63;5035799;28;20579;-85
2023/08/03 03:51:28;;;;;;;20.23;15.10;;;;;;;-141.97;63.25;47559.44;5028357;28;20202;-85
2023/08/03 03:53:53;;;;;;;19.63;15.10;;;;;;;-141.97;63.51;47586.34;5029585;28;20563;-86
2023/08/03 03:56:19;;;;;;;19.00;15.17;;;;;;;-141.97;63.36;47351.88;5031067;28;20201;-86
2023/08/03 03:58:44;;;;;;;19.87;15.70;;;;;;;-141.97;63.33;47561.38;5033801;28;20166;-85
2023/08/03 04:01:09;;;;;;;18.77;14.70;;;;;;;-141.97;62.91;47651.69;5012839;28;20166;-85
2023/08/03 04:03:35;;;;;;;20.67;15.93;;;;;;;-141.97;62.61;47405.69;5018993;28;20299;-84
2023/08/03 04:06:00;;;;;;;20.10;15.93;;;;;;;-141.97;62.86;47438.34;5040492;28;20617;-84
2023/08/03 04:08:25;;;;;;;21.70;16.07;;;;;;;-141.97;62.67;47363.41;5029500;28;20230;-86
2023/08/03 04:10:51;;;;;;;20.23;16.20;;;;;;;-141.97;62.15;47323.03;5052743;28;20284;-86
2023/08/03 04:13:16;;;;;;;21.33;15.53;;;;;;;-141.97;62.24;47301.91;5035966;28;20172;-86
2023/08/03 04:15:42;;;;;;;21.40;16.47;;;;;;;-141.97;61.51;47469.09;5014588;28;20568;-85
2023/08/03 04:18:07;;;;;;;22.73;16.37;;;;;;;-141.97;61.56;47430.66;5031089;28;20264;-85
2023/08/03 04:20:32;;;;;;;20.07;16.17;;;;;;;-141.97;60.63;47349.94;5026828;28;20196;-86
2023/08/03 04:22:58;;;;;;;22.27;16.50;;;;;;;-141.97;60.00;47549.84;5067145;28;20252;-86
2023/08/03 04:25:23;;;;;;;23.00;15.90;;;;;;;-141.97;59.63;47215.41;5033148;28;20264;-85
2023/08/03 04:27:49;;;;;;;21.47;15.70;;;;;;;-141.97;60.04;47480.63;5032781;28;20186;-85
2023/08/03 04:30:14;;;;;;;26.10;16.67;;;;;;;-141.97;61.16;47561.38;5013262;28;20284;-85
2023/08/03 04:32:40;;;;;;;30.93;16.37;;;;;;;-141.97;61.04;47376.84;5034027;28;20150;-84
2023/08/03 04:35:06;;;;;;;28.43;16.63;;;;;;;-141.97;61.09;47611.34;5050455;28;20163;-85
2023/08/03 04:37:32;;;;;;;22.60;16.57;;;;;;;-141.97;60.05;47299.97;5042187;28;20229;-85
2023/08/03 04:39:57;;;;;;;21.80;15.33;;;;;;;-141.97;58.73;47695.91;5050217;28;20170;-86
2023/08/03 04:42:23;;;;;;;21.57;16.13;;;;;;;-141.97;58.67;47424.91;5033114;28;20177;-86
2023/08/03 04:44:49;;;;;;;23.40;16.80;;;;;;;-141.97;58.24;47369.16;5051751;28;20200;-86
2023/08/03 04:47:15;;;;;;;19.77;16.23;;;;;;;-141.97;57.96;47344.19;5050984;28;20162;-85
2023/08/03 04:49:41;;;;;;;20.67;16.17;;;;;;;-141.97;57.65;47544.06;5032665;28;20567;-85
2023/08/03 04:52:06;;;;;;;25.53;16.53;;;;;;;-141.97;57.58;47434.50;5052188;28;20621;-85
2023/08/03 04:54:32;;;;;;;26.33;17.17;;;;;;;-141.97;57.42;47438.34;5056089;28;20585;-85
2023/08/03 04:56:57;;;;;;;29.20;16.33;;;;;;;-141.97;57.21;47213.50;5038841;28;20250;-86
2023/08/03 04:59:22;;;;;;;25.87;16.63;;;;;;;-141.97;57.73;47338.41;5055059;28;20207;-85
2023/08/03 05:01:48;;;;;;;21.43;16.53;;;;;;;-141.97;58.35;47188.50;5054685;28;20601;-86
2023/08/03 05:04:13;;;;;;;23.00;17.33;;;;;;;-141.97;58.32;47530.59;5068817;28;20166;-85
2023/08/03 05:06:39;;;;;;;26.07;17.13;;;;;;;-141.97;58.49;47651.69;5053400;28;20627;-86
2023/08/03 05:09:04;;;;;;;24.67;16.47;;;;;;;-141.97;58.08;47411.44;5037920;28;20161;-86
2023/08/03 05:11:29;;;;;;;20.47;15.93;;;;;;;-141.97;57.99;47363.41;5054590;28;20197;-85
2023/08/03 05:13:55;;;;;;;20.17;15.87;;;;;;;-141.97;57.65;47257.69;5037825;28;20270;-86
2023/08/03 05:16:24;;;;;;;19.90;14.97;;;;;;;-141.97;57.69;47438.34;5055657;28;20166;-86
2023/08/03 05:18:50;;;;;;;20.13;15.40;;;;;;;-141.97;57.32;47267.31;5037593;28;20298;-86
2023/08/03 05:21:15;;;;;;;17.90;14.43;;;;;;;-141.97;56.55;47478.72;5057629;28;20205;-86
2023/08/03 05:23:41;;;;;;;21.20;15.20;;;;;;;-141.97;55.98;47313.44;5021513;28;20177;-87
2023/08/03 05:26:06;;;;;;;23.80;15.00;;;;;;;-141.97;55.19;47353.78;5054986;28;20166;-87
2023/08/03 05:28:32;;;;;;;16.50;14.20;;;;;;;-141.97;53.74;47323.03;5053841;28;20170;-86
2023/08/03 05:30:57;;;;;;;16.77;14.38;;;;;;;-141.97;52.96;47311.50;5055612;28;20278;-86
2023/08/03 05:33:23;;;;;;;17.35;14.38;;;;;;;-141.97;52.97;47269.22;5036321;28;20273;-86
2023/08/03 05:35:48;;;;;;;17.98;14.45;;;;;;;-141.97;53.01;47242.31;5054318;28;20250;-86
2023/08/03 05:38:17;;;;;;;15.48;13.80;;;;;;;-141.97;52.52;47580.59;5077134;28;20619;-85
2023/08/03 05:40:42;;;;;;;19.80;14.90;;;;;;;-141.97;52.80;47253.84;5055315;28;20179;-87
2023/08/03 05:43:13;;;;;;;17.15;14.40;;;;;;;-141.97;52.59;47198.09;5072910;28;20259;-85
2023/08/03 05:45:44;;;;;;;19.67;14.85;;;;;;;-141.97;51.53;47411.44;5072754;28;20180;-86
2023/08/03 05:48:15;;;;;;;19.33;14.63;;;;;;;-141.97;50.87;47230.78;5089310;28;20188;-86
2023/08/03 05:50:43;;;;;;;15.88;13.93;;;;;;;-141.97;49.60;47634.41;5041559;28;20585;-87
2023/08/03 05:53:09;;;;;;;17.02;13.50;;;;;;;-141.97;48.93;47236.56;5055232;28;20162;-86
2023/08/03 05:55:35;;;;;;;15.63;12.82;;;;;;;-141.97;48.03;47371.09;5035314;28;20209;-85
2023/08/03 05:58:01;;;;;;;19.02;13.60;;;;;;;-141.97;48.61;47324.97;5052804;28;20186;-86
2023/08/03 06:00:28;;;;;;;16.83;13.75;;;;;;;-141.97;47.87;47355.72;5053549;28;20177;-86
2023/08/03 06:02:56;;;;;;;17.98;13.38;;;;;;;-141.97;47.72;47284.59;5052000;28;20169;-86
2023/08/03 06:05:43;;;;;;;17.25;13.43;;;;;;;-141.97;47.97;47369.16;5052184;28;20178;-86
2023/08/03 06:08:24;;;;;;;17.27;13.75;;;;;;;-141.97;47.87;47642.09;5053115;28;20184;-86
2023/08/03 06:10:54;;;;;;;15.63;13.23;;;;;;;-141.97;47.15;47392.22;5053162;28;20202;-86
2023/08/03 06:13:31;;;;;;;16.67;13.15;;;;;;;-141.97;47.02;47334.56;5052569;28;20167;-86
2023/08/03 06:15:56;;;;;;;16.70;13.52;;;;;;;-141.97;46.78;47620.94;5053077;28;20586;-86
2023/08/03 06:18:22;;;;;;;18.15;13.20;;;;;;;-141.97;46.52;47340.34;5052341;28;20236;-86
2023/08/03 06:20:50;;;;;;;15.68;13.38;;;;;;;-141.97;46.68;47180.81;5052618;28;20179;-86
2023/08/03 06:23:28;;;;;;;17.45;13.10;;;;;;;-141.97;45.62;47326.88;5054733;28;20249;-86
2023/08/03 06:25:55;;;;;;;17.05;13.38;;;;;;;-141.97;45.33;47023.22;5055711;28;20174;-87
2023/08/03 06:28:23;;;;;;;15.98;13.20;;;;;;;-141.97;45.11;47040.53;5057988;28;20171;-86
2023/08/03 06:30:51;;;;;;;28.05;13.85;;;;;;;-141.97;44.91;47032.84;5057247;28;20220;-86
2023/08/03 06:33:18;;;;;;;51.55;15.27;;;;;;;-141.97;44.33;47115.47;5056576;28;20245;-86
2023/08/03 06:35:46;;;;;;;14.85;12.85;;;;;;;-141.97;44.05;47599.81;5056097;28;20176;-86
2023/08/03 06:38:14;;;;;;;17.48;13.27;;;;;;;-141.97;44.57;47378.78;5051767;28;20679;-86
2023/08/03 06:40:40;;;;;;;15.68;13.23;;;;;;;-141.97;44.80;47392.22;5051864;28;20611;-84
2023/08/03 06:43:07;;;;;;;15.90;13.07;;;;;;;-141.97;43.87;47127.00;5058277;28;20158;-85
2023/08/03 06:45:33;;;;;;;16.15;13.52;;;;;;;-141.97;44.51;47361.47;5072711;28;20662;-85
2023/08/03 06:48:00;;;;;;;15.35;13.48;;;;;;;-141.97;44.02;47315.34;5065671;28;20243;-85
2023/08/03 06:50:28;;;;;;;15.23;13.25;;;;;;;-141.97;44.02;47273.06;5074203;28;20218;-87
2023/08/03 06:52:53;;;;;;;14.93;13.43;;;;;;;-141.97;42.78;47234.63;5072518;28;20170;-85
2023/08/03 06:55:19;;;;;;;15.43;13.73;;;;;;;-141.97;42.90;47315.34;5073397;28;20203;-85
2023/08/03 06:57:45;;;;;;;16.17;13.55;;;;;;;-141.97;43.02;47282.69;5100116;28;20205;-86
2023/08/03 07:00:11;;;;;;;14.25;12.75;;;;;;;-141.97;43.44;47215.41;5078186;28;20183;-86
2023/08/03 07:02:37;;;;;;;15.13;13.43;;;;;;;-141.97;42.66;47334.56;5094780;28;20163;-86
2023/08/03 07:05:03;;;;;;;15.20;13.40;;;;;;;-141.97;43.81;47078.97;5077870;28;20186;-85
2023/08/03 07:07:30;;;;;;;14.80;13.27;;;;;;;-141.97;44.16;47307.66;5065839;28;20241;-85
2023/08/03 07:09:55;;;;;;;16.42;13.02;;;;;;;-141.97;42.78;47319.19;5053695;28;20548;-82
2023/08/03 07:12:21;;;;;;;14.38;12.88;;;;;;;-141.97;41.50;47313.44;5053083;28;20160;-86
2023/08/03 07:14:46;;;;;;;15.05;13.52;;;;;;;-141.97;41.55;47315.34;5052929;28;20167;-85
2023/08/03 07:17:12;;;;;;;15.02;13.52;;;;;;;-141.97;41.47;47250.00;5035014;28;20224;-86
2023/08/03 07:19:37;;;;;;;14.27;12.88;;;;;;;-141.97;40.92;47307.66;5053127;28;20163;-85
2023/08/03 07:22:04;;;;;;;15.95;13.48;;;;;;;-141.97;41.17;47090.50;5054258;28;20170;-86
2023/08/03 07:24:32;;;;;;;15.32;13.45;;;;;;;-141.97;40.95;47063.59;5052896;28;20183;-85
2023/08/03 07:27:00;;;;;;;14.32;12.82;;;;;;;-141.97;42.13;47284.59;5053659;28;20148;-85
2023/08/03 07:29:29;;;;;;;16.23;13.20;;;;;;;-141.97;41.31;47115.47;5057327;28;20227;-87
2023/08/03 07:31:55;;;;;;;19.75;13.40;;;;;;;-141.97;41.01;47107.78;5053319;28;20188;-85
2023/08/03 07:34:21;;;;;;;14.85;13.18;;;;;;;-141.97;40.55;47299.97;5053508;28;20550;-86
2023/08/03 07:36:46;;;;;;;15.20;12.93;;;;;;;-141.97;39.91;46979.03;5056106;28;20162;-85
2023/08/03 07:39:12;;;;;;;15.88;12.57;;;;;;;-141.97;39.45;47307.66;5060353;28;20594;-85
2023/08/03 07:41:38;;;;;;;15.50;13.13;;;;;;;-141.97;39.57;47267.31;5056929;28;20162;-85
2023/08/03 07:44:03;;;;;;;14.70;13.20;;;;;;;-141.97;39.21;47526.75;5055694;28;20267;-86
2023/08/03 07:46:30;;;;;;;17.40;12.68;;;;;;;-141.97;38.82;47449.88;5055223;28;20257;-86
2023/08/03 07:48:58;;;;;;;14.60;13.07;;;;;;;-141.97;38.67;47180.81;5050203;28;20229;-86
2023/08/03 07:51:24;;;;;;;14.23;12.57;;;;;;;-141.97;38.62;47248.09;5038584;28;20189;-84
2023/08/03 07:53:49;;;;;;;17.15;14.65;;;;;;;-141.97;37.85;47111.63;5058181;28;20255;-86
2023/08/03 07:56:20;;;;;;;14.95;13.40;;;;;;;-141.97;38.00;47476.78;5061810;28;20251;-86
2023/08/03 07:58:46;;;;;;;14.98;13.48;;;;;;;-141.97;38.97;47309.59;5066176;28;20161;-86
2023/08/03 08:01:12;;;;;;;15.02;13.43;;;;;;;-141.97;39.33;47276.91;5072655;28;20150;-86
2023/08/03 08:03:38;;;;;;;14.07;12.70;;;;;;;-141.97;39.13;47029.00;5070682;28;20245;-86
2023/08/03 08:06:15;;;;;;;15.38;13.70;;;;;;;-141.97;38.53;47288.44;5063028;28;20174;-86
2023/08/03 08:08:42;;;;;;;17.15;14.00;;;;;;;-141.97;38.90;46998.25;5063003;28;20169;-86
2023/08/03 08:11:08;;;;;;;15.52;13.90;;;;;;;-141.97;38.61;47192.34;5060877;28;20188;-86
2023/08/03 08:13:34;;;;;;;15.02;13.48;;;;;;;-141.97;38.13;47413.38;5069500;28;20173;-85
2023/08/03 08:16:05;;;;;;;15.45;13.85;;;;;;;-141.97;38.70;46998.25;5066945;28;20169;-89
2023/08/03 08:18:31;;;;;;;17.83;14.38;;;;;;;-141.97;38.85;47559.44;5059589;28;20168;-88
2023/08/03 08:21:01;;;;;;;15.32;13.82;;;;;;;-141.97;37.97;47052.06;5057021;28;20155;-87
2023/08/03 08:23:30;;;;;;;15.35;13.75;;;;;;;-141.97;37.47;47226.94;5057167;28;20185;-86
2023/08/03 08:25:56;;;;;;;15.48;13.90;;;;;;;-141.97;37.23;47138.53;5057159;28;20165;-87
2023/08/03 08:28:22;;;;;;;16.98;14.15;;;;;;;-141.97;37.89;47451.81;5060529;28;20318;-87
2023/08/03 08:30:48;;;;;;;15.45;13.85;;;;;;;-141.97;38.29;47282.69;5065707;28;20742;-87
2023/08/03 08:33:15;;;;;;;16.58;14.40;;;;;;;-141.97;37.73;47376.84;5057597;28;20166;-86
2023/08/03 08:35:41;;;;;;;17.92;14.30;;;;;;;-141.97;36.88;47029.00;5055760;28;20173;-86
2023/08/03 08:38:09;;;;;;;15.98;14.27;;;;;;;-141.97;37.41;47084.72;5057613;28;20241;-86
2023/08/03 08:40:39;;;;;;;17.33;14.35;;;;;;;-141.97;36.66;47303.81;5058097;28;20248;-88
2023/08/03 08:43:05;;;;;;;17.58;15.20;;;;;;;-141.97;37.68;47238.47;5056426;28;20264;-87
2023/08/03 08:45:30;;;;;;;21.70;15.48;;;;;;;-141.97;37.88;47046.28;5056599;28;20169;-85
2023/08/03 08:47:56;;;;;;;19.17;15.27;;;;;;;-141.97;37.23;47221.19;5047792;28;20243;-83
2023/08/03 08:50:22;;;;;;;17.13;15.13;;;;;;;-141.97;37.54;47103.94;5060509;28;20672;-89
2023/08/03 08:52:49;;;;;;;19.08;15.10;;;;;;;-141.97;37.16;47190.44;5054331;28;20166;-86
2023/08/03 08:55:20;;;;;;;18.33;15.82;;;;;;;-141.97;37.36;47215.41;5055777;28;20178;-89
2023/08/03 08:57:46;;;;;;;17.50;15.70;;;;;;;-141.97;37.32;47234.63;5055515;28;20520;-85
2023/08/03 09:00:12;;;;;;;18.52;15.85;;;;;;;-141.97;37.19;47088.56;5055574;28;20219;-86
2023/08/03 09:02:38;;;;;;;17.83;15.93;;;;;;;-141.97;37.39;47219.25;5056174;28;20185;-86
2023/08/03 09:05:12;;;;;;;18.30;16.30;;;;;;;-141.97;36.84;47223.09;5056480;28;20177;-86
2023/08/03 09:07:37;;;;;;;19.17;16.42;;;;;;;-141.97;36.30;47032.84;5060841;28;20182;-87
2023/08/03 09:10:03;;;;;;;18.15;16.05;;;;;;;-141.97;36.46;47107.78;5057194;28;20189;-86
2023/08/03 09:12:28;;;;;;;18.58;16.23;;;;;;;-141.97;37.07;47084.72;5038387;28;20174;-86
2023/08/03 09:14:55;;;;;;;18.17;16.27;;;;;;;-141.97;36.31;47190.44;5057402;28;20177;-85
2023/08/03 09:17:24;;;;;;;17.90;16.00;;;;;;;-141.97;36.16;47190.44;5056791;28;20161;-85
2023/08/03 09:19:51;;;;;;;22.45;16.00;;;;;;;-141.97;37.24;47121.25;5059856;28;20196;-86
2023/08/03 09:22:19;;;;;;;17.98;16.08;;;;;;;-141.97;36.41;47205.81;5055689;28;20169;-86
2023/08/03 09:24:47;;;;;;;18.45;16.35;;;;;;;-141.97;36.27;47213.50;5055898;28;20188;-86
2023/08/03 09:27:17;;;;;;;17.48;15.38;;;;;;;-141.97;36.20;47171.22;5061230;28;20161;-88
2023/08/03 09:29:43;;;;;;;17.20;15.27;;;;;;;-141.97;36.92;47207.72;5069863;28;20161;-84
2023/08/03 09:32:12;;;;;;;17.08;15.27;;;;;;;-141.97;37.54;47401.84;5054094;28;20319;-86
2023/08/03 09:34:44;;;;;;;22.10;15.77;;;;;;;-141.97;37.29;47192.34;5054336;28;20193;-87
2023/08/03 09:37:11;;;;;;;16.70;14.98;;;;;;;-141.97;37.02;47128.94;5055788;28;20169;-87
2023/08/03 09:39:38;;;;;;;17.45;15.75;;;;;;;-141.97;37.42;47215.41;5053941;28;20166;-86
2023/08/03 09:42:05;;;;;;;17.70;15.90;;;;;;;-141.97;38.00;47052.06;5054613;28;20170;-85
2023/08/03 09:44:34;;;;;;;17.70;15.18;;;;;;;-141.97;37.57;47205.81;5054322;28;20192;-86
2023/08/03 09:47:01;;;;;;;16.20;14.60;;;;;;;-141.97;36.66;46923.28;5053561;28;20847;-87
2023/08/03 09:49:26;;;;;;;16.55;14.95;;;;;;;-141.97;36.54;47176.97;5044694;28;20413;-86
2023/08/03 09:51:55;;;;;;;20.63;15.40;;;;;;;-141.97;37.37;46904.06;5053340;28;21122;-85
2023/08/03 09:54:55;;;;;;;20.98;15.10;;;;;;;-141.97;37.07;47184.66;5053069;28;20204;-85
2023/08/03 09:57:28;;;;;;;15.52;14.10;;;;;;;-141.97;36.45;47173.13;5056353;28;20165;-85
2023/08/03 10:00:01;;;;;;;15.48;13.95;;;;;;;-141.97;36.66;47119.31;5055229;28;20165;-86
2023/08/03 10:02:29;;;;;;;20.75;14.32;;;;;;;-141.97;36.79;46992.47;5053829;28;20241;-85
2023/08/03 10:05:01;;;;;;;15.27;13.30;;;;;;;-141.97;36.44;46881.03;5053496;28;20211;-85
2023/08/03 10:07:41;;;;;;;15.52;13.90;;;;;;;-141.97;36.38;47053.97;5056618;28;20169;-84
2023/08/03 10:10:10;;;;;;;15.65;13.95;;;;;;;-141.97;36.07;47057.81;5053816;28;20196;-86
2023/08/03 10:12:44;;;;;;;15.48;13.88;;;;;;;-141.97;36.07;47234.63;5053085;28;20205;-85
2023/08/03 10:15:12;;;;;;;15.05;13.55;;;;;;;-141.97;36.44;47430.66;5055650;28;20165;-86
2023/08/03 10:17:38;;;;;;;15.43;13.90;;;;;;;-141.97;36.55;47171.22;5052936;28;20157;-86
2023/08/03 10:20:05;;;;;;;15.52;14.05;;;;;;;-141.97;36.64;47201.97;5073386;28;20171;-85
2023/08/03 10:22:30;;;;;;;16.55;14.38;;;;;;;-141.97;37.50;47142.38;5066847;28;20178;-85
2023/08/03 10:25:18;;;;;;;16.13;14.48;;;;;;;-141.97;37.42;47057.81;5038427;28;20158;-87
2023/08/03 10:28:13;;;;;;;16.20;14.02;;;;;;;-141.97;36.70;47223.09;5070408;28;20284;-85
2023/08/03 10:31:17;;;;;;;16.13;14.60;;;;;;;-141.97;36.20;47226.94;5053446;28;20188;-85
2023/08/03 10:33:49;;;;;;;17.35;14.40;;;;;;;-141.97;36.47;47184.66;5053914;28;20227;-86
2023/08/03 10:36:26;;;;;;;18.52;14.73;;;;;;;-141.97;36.27;47178.91;5051637;28;20226;-83
2023/08/03 10:38:56;;;;;;;16.25;14.45;;;;;;;-141.97;36.21;47215.41;5051131;28;20584;-82
2023/08/03 10:41:22;;;;;;;16.13;14.52;;;;;;;-141.97;36.67;47180.81;5051985;28;20160;-82
2023/08/03 10:44:14;;;;;;;15.40;13.80;;;;;;;-141.97;36.67;47159.69;5051592;28;20240;-83
2023/08/03 10:46:48;;;;;;;16.15;14.57;;;;;;;-141.97;36.28;47173.13;4990177;28;20183;-83
2023/08/03 10:49:22;;;;;;;16.67;14.93;;;;;;;-141.97;37.13;47196.19;4980545;28;20235;-82
2023/08/03 10:51:55;;;;;;;16.35;14.65;;;;;;;-141.97;37.11;47188.50;4990428;28;20214;-82
2023/08/03 10:54:31;;;;;;;16.60;15.00;;;;;;;-141.97;37.16;47182.75;4989774;28;20218;-82
2023/08/03 10:57:04;;;;;;;16.67;14.57;;;;;;;-141.97;36.67;47207.72;5009319;28;20214;-82
2023/08/03 10:59:34;;;;;;;16.02;14.52;;;;;;;-141.97;35.92;47063.59;5010285;28;20541;-83
2023/08/03 11:02:07;;;;;;;17.23;15.45;;;;;;;-141.97;36.22;47080.88;5009195;28;20190;-84